This is the latest recevied weather packets stored in our database for station/object I2TZK-00. If no packets are shown the sender has not sent any weather packets the latest 10 day(s).
| Time | Temp. | Humidity | Pressure | Rain* | Wind** | Luminosity | Snow |
|---|---|---|---|---|---|---|---|
| 1787677601 | 29.44° C | 56% | 1003.9 hPa | - | - | - | - |
| 1787677421 | 29.44° C | 56% | 1003.9 hPa | - | - | - | - |
| 1787677238 | 28.89° C | 57% | 1004.2 hPa | - | - | - | - |
| 1787677057 | 29.44° C | 56% | 1004 hPa | - | - | - | - |
| 1787676877 | 29.44° C | 55% | 1003.9 hPa | - | - | - | - |
| 1787676653 | 29.44° C | 54% | 1003.8 hPa | - | - | - | - |
| 1787676228 | 28.89° C | 55% | 1004.1 hPa | - | - | - | - |
| 1787673961 | 29.44° C | 54% | 1003.8 hPa | - | - | - | - |
| 1787672848 | 28.89° C | 54% | 1003.9 hPa | - | - | - | - |
| 1787671600 | 28.89° C | 54% | 1003.7 hPa | - | - | - | - |
| 1787671460 | 28.89° C | 53% | 1003.7 hPa | - | - | - | - |
| 1787671232 | 28.89° C | 54% | 1003.8 hPa | - | - | - | - |
| 1787670571 | 28.89° C | 54% | 1003.8 hPa | - | - | - | - |
| 1787670469 | 28.89° C | 54% | 1003.8 hPa | - | - | - | - |
| 1787670287 | 29.44° C | 54% | 1003.7 hPa | - | - | - | - |
| 1787670106 | 28.89° C | 54% | 1003.7 hPa | - | - | - | - |
| 1787669926 | 28.89° C | 54% | 1003.7 hPa | - | - | - | - |
| 1787669742 | 28.89° C | 54% | 1003.7 hPa | - | - | - | - |
| 1787669551 | 28.89° C | 54% | 1003.8 hPa | - | - | - | - |
| 1787669371 | 28.89° C | 54% | 1003.9 hPa | - | - | - | - |
| 1787669190 | 28.89° C | 55% | 1004 hPa | - | - | - | - |
| 1787669010 | 28.33° C | 56% | 1004.1 hPa | - | - | - | - |
| 1787668601 | 27.78° C | 57% | 1004.8 hPa | - | - | - | - |
| 1787638018 | 29.44° C | 52% | 1003.3 hPa | - | - | - | - |
| 1787637386 | 29.44° C | 52% | 1003.3 hPa | - | - | - | - |
* Rain since midnight (hover to see other rain measurements)
** Current wind speed in m/s (hover to see current wind gust speed)